sensor_id;sensor_type;location;lat;lon;timestamp;temperature;humidity
42965;DHT22;28604;51.204;22.552;2023-07-09T00:00:37;20.10;74.40
42965;DHT22;28604;51.204;22.552;2023-07-09T00:03:22;20.10;74.40
42965;DHT22;28604;51.204;22.552;2023-07-09T00:05:49;20.10;75.00
42965;DHT22;28604;51.204;22.552;2023-07-09T00:08:33;20.10;75.50
42965;DHT22;28604;51.204;22.552;2023-07-09T00:10:59;20.10;75.20
42965;DHT22;28604;51.204;22.552;2023-07-09T00:13:27;20.00;75.40
42965;DHT22;28604;51.204;22.552;2023-07-09T00:15:58;20.00;75.70
42965;DHT22;28604;51.204;22.552;2023-07-09T00:18:25;20.00;75.90
42965;DHT22;28604;51.204;22.552;2023-07-09T00:20:51;20.00;76.10
42965;DHT22;28604;51.204;22.552;2023-07-09T00:23:17;20.00;76.60
42965;DHT22;28604;51.204;22.552;2023-07-09T00:25:46;19.90;76.80
42965;DHT22;28604;51.204;22.552;2023-07-09T00:28:14;20.00;77.10
42965;DHT22;28604;51.204;22.552;2023-07-09T00:30:40;19.90;76.90
42965;DHT22;28604;51.204;22.552;2023-07-09T00:33:10;19.90;77.60
42965;DHT22;28604;51.204;22.552;2023-07-09T00:35:36;19.90;77.70
42965;DHT22;28604;51.204;22.552;2023-07-09T00:38:02;19.90;77.80
42965;DHT22;28604;51.204;22.552;2023-07-09T00:40:28;19.90;77.40
42965;DHT22;28604;51.204;22.552;2023-07-09T00:42:55;19.90;77.70
42965;DHT22;28604;51.204;22.552;2023-07-09T00:45:26;19.80;77.80
42965;DHT22;28604;51.204;22.552;2023-07-09T00:48:04;19.80;77.80
42965;DHT22;28604;51.204;22.552;2023-07-09T00:50:42;19.80;77.60
42965;DHT22;28604;51.204;22.552;2023-07-09T00:53:13;19.80;77.90
42965;DHT22;28604;51.204;22.552;2023-07-09T00:55:44;19.80;77.70
42965;DHT22;28604;51.204;22.552;2023-07-09T00:58:19;19.70;77.60
42965;DHT22;28604;51.204;22.552;2023-07-09T01:00:50;19.70;77.70
42965;DHT22;28604;51.204;22.552;2023-07-09T01:03:34;19.60;77.80
42965;DHT22;28604;51.204;22.552;2023-07-09T01:06:01;19.60;77.90
42965;DHT22;28604;51.204;22.552;2023-07-09T01:08:32;19.60;77.90
42965;DHT22;28604;51.204;22.552;2023-07-09T01:10:59;19.60;77.10
42965;DHT22;28604;51.204;22.552;2023-07-09T01:13:26;19.50;76.60
42965;DHT22;28604;51.204;22.552;2023-07-09T01:15:53;19.50;76.10
42965;DHT22;28604;51.204;22.552;2023-07-09T01:18:20;19.40;75.80
42965;DHT22;28604;51.204;22.552;2023-07-09T01:20:47;19.40;75.80
42965;DHT22;28604;51.204;22.552;2023-07-09T01:23:13;19.30;75.50
42965;DHT22;28604;51.204;22.552;2023-07-09T01:25:49;19.30;75.20
42965;DHT22;28604;51.204;22.552;2023-07-09T01:28:20;19.20;75.40
42965;DHT22;28604;51.204;22.552;2023-07-09T01:30:46;19.20;75.20
42965;DHT22;28604;51.204;22.552;2023-07-09T01:33:20;19.20;75.20
42965;DHT22;28604;51.204;22.552;2023-07-09T01:35:46;19.20;75.70
42965;DHT22;28604;51.204;22.552;2023-07-09T01:38:13;19.10;75.40
42965;DHT22;28604;51.204;22.552;2023-07-09T01:40:40;19.10;75.20
42965;DHT22;28604;51.204;22.552;2023-07-09T01:43:06;19.10;75.70
42965;DHT22;28604;51.204;22.552;2023-07-09T01:45:34;19.10;76.90
42965;DHT22;28604;51.204;22.552;2023-07-09T01:48:02;19.10;77.60
42965;DHT22;28604;51.204;22.552;2023-07-09T01:50:29;19.10;77.60
42965;DHT22;28604;51.204;22.552;2023-07-09T01:52:57;19.10;78.20
42965;DHT22;28604;51.204;22.552;2023-07-09T01:55:23;19.00;78.60
42965;DHT22;28604;51.204;22.552;2023-07-09T01:57:49;19.10;78.90
42965;DHT22;28604;51.204;22.552;2023-07-09T02:00:17;19.10;78.10
42965;DHT22;28604;51.204;22.552;2023-07-09T02:02:45;19.00;77.60
42965;DHT22;28604;51.204;22.552;2023-07-09T02:05:14;19.00;77.90
42965;DHT22;28604;51.204;22.552;2023-07-09T02:07:48;19.00;77.60
42965;DHT22;28604;51.204;22.552;2023-07-09T02:10:16;19.00;77.10
42965;DHT22;28604;51.204;22.552;2023-07-09T02:12:42;19.00;76.70
42965;DHT22;28604;51.204;22.552;2023-07-09T02:15:10;18.90;76.60
42965;DHT22;28604;51.204;22.552;2023-07-09T02:17:36;18.80;76.40
42965;DHT22;28604;51.204;22.552;2023-07-09T02:20:03;18.70;76.20
42965;DHT22;28604;51.204;22.552;2023-07-09T02:22:30;18.70;76.60
42965;DHT22;28604;51.204;22.552;2023-07-09T02:24:57;18.60;76.60
42965;DHT22;28604;51.204;22.552;2023-07-09T02:27:24;18.60;76.80
42965;DHT22;28604;51.204;22.552;2023-07-09T02:29:50;18.60;77.00
42965;DHT22;28604;51.204;22.552;2023-07-09T02:32:21;18.60;76.90
42965;DHT22;28604;51.204;22.552;2023-07-09T02:34:48;18.60;76.60
42965;DHT22;28604;51.204;22.552;2023-07-09T02:37:16;18.50;76.80
42965;DHT22;28604;51.204;22.552;2023-07-09T02:39:44;18.50;76.70
42965;DHT22;28604;51.204;22.552;2023-07-09T02:42:11;18.50;76.80
42965;DHT22;28604;51.204;22.552;2023-07-09T02:44:38;18.40;77.00
42965;DHT22;28604;51.204;22.552;2023-07-09T02:47:04;18.40;77.10
42965;DHT22;28604;51.204;22.552;2023-07-09T02:49:30;18.40;76.90
42965;DHT22;28604;51.204;22.552;2023-07-09T02:51:57;18.40;77.30
42965;DHT22;28604;51.204;22.552;2023-07-09T02:54:23;18.40;77.40
42965;DHT22;28604;51.204;22.552;2023-07-09T02:56:49;18.30;77.50
42965;DHT22;28604;51.204;22.552;2023-07-09T02:59:15;18.30;77.00
42965;DHT22;28604;51.204;22.552;2023-07-09T03:01:41;18.30;77.00
42965;DHT22;28604;51.204;22.552;2023-07-09T03:04:07;18.30;77.00
42965;DHT22;28604;51.204;22.552;2023-07-09T03:06:35;18.30;76.90
42965;DHT22;28604;51.204;22.552;2023-07-09T03:09:02;18.30;76.50
42965;DHT22;28604;51.204;22.552;2023-07-09T03:11:30;18.30;76.30
42965;DHT22;28604;51.204;22.552;2023-07-09T03:13:58;18.30;76.20
42965;DHT22;28604;51.204;22.552;2023-07-09T03:16:27;18.30;76.20
42965;DHT22;28604;51.204;22.552;2023-07-09T03:18:53;18.30;76.40
42965;DHT22;28604;51.204;22.552;2023-07-09T03:21:21;18.30;77.10
42965;DHT22;28604;51.204;22.552;2023-07-09T03:23:47;18.40;77.70
42965;DHT22;28604;51.204;22.552;2023-07-09T03:26:13;18.30;78.30
42965;DHT22;28604;51.204;22.552;2023-07-09T03:28:39;18.40;79.00
42965;DHT22;28604;51.204;22.552;2023-07-09T03:31:05;18.40;79.00
42965;DHT22;28604;51.204;22.552;2023-07-09T03:33:31;18.40;79.00
42965;DHT22;28604;51.204;22.552;2023-07-09T03:35:57;18.40;78.90
42965;DHT22;28604;51.204;22.552;2023-07-09T03:38:22;18.40;78.80
42965;DHT22;28604;51.204;22.552;2023-07-09T03:40:53;18.50;78.60
42965;DHT22;28604;51.204;22.552;2023-07-09T03:43:19;18.50;78.80
42965;DHT22;28604;51.204;22.552;2023-07-09T03:45:46;18.50;78.50
42965;DHT22;28604;51.204;22.552;2023-07-09T03:48:13;18.50;78.30
42965;DHT22;28604;51.204;22.552;2023-07-09T03:50:39;18.50;78.40
42965;DHT22;28604;51.204;22.552;2023-07-09T03:53:05;18.50;78.50
42965;DHT22;28604;51.204;22.552;2023-07-09T03:55:32;18.60;78.70
42965;DHT22;28604;51.204;22.552;2023-07-09T03:57:58;18.60;78.40
42965;DHT22;28604;51.204;22.552;2023-07-09T04:00:24;18.60;78.30
42965;DHT22;28604;51.204;22.552;2023-07-09T04:02:51;18.60;78.40
42965;DHT22;28604;51.204;22.552;2023-07-09T04:05:18;18.70;79.10
42965;DHT22;28604;51.204;22.552;2023-07-09T04:07:44;18.70;79.20
42965;DHT22;28604;51.204;22.552;2023-07-09T04:10:11;18.80;79.20
42965;DHT22;28604;51.204;22.552;2023-07-09T04:12:37;18.80;79.00
42965;DHT22;28604;51.204;22.552;2023-07-09T04:15:04;18.90;79.10
42965;DHT22;28604;51.204;22.552;2023-07-09T04:17:30;18.90;78.90
42965;DHT22;28604;51.204;22.552;2023-07-09T04:19:56;19.00;78.80
42965;DHT22;28604;51.204;22.552;2023-07-09T04:22:22;19.00;78.60
42965;DHT22;28604;51.204;22.552;2023-07-09T04:24:48;19.10;78.30
42965;DHT22;28604;51.204;22.552;2023-07-09T04:27:16;19.10;78.10
42965;DHT22;28604;51.204;22.552;2023-07-09T04:29:42;19.20;78.00
42965;DHT22;28604;51.204;22.552;2023-07-09T04:32:12;19.20;77.90
42965;DHT22;28604;51.204;22.552;2023-07-09T04:34:39;19.20;77.90
42965;DHT22;28604;51.204;22.552;2023-07-09T04:37:09;19.30;77.90
42965;DHT22;28604;51.204;22.552;2023-07-09T04:39:36;19.30;77.40
42965;DHT22;28604;51.204;22.552;2023-07-09T04:42:02;19.40;77.00
42965;DHT22;28604;51.204;22.552;2023-07-09T04:44:28;19.40;76.70
42965;DHT22;28604;51.204;22.552;2023-07-09T04:46:54;19.50;76.50
42965;DHT22;28604;51.204;22.552;2023-07-09T04:49:20;19.60;75.90
42965;DHT22;28604;51.204;22.552;2023-07-09T04:51:46;19.70;75.50
42965;DHT22;28604;51.204;22.552;2023-07-09T04:54:12;19.70;74.70
42965;DHT22;28604;51.204;22.552;2023-07-09T04:56:41;19.80;74.20
42965;DHT22;28604;51.204;22.552;2023-07-09T04:59:11;19.90;74.30
42965;DHT22;28604;51.204;22.552;2023-07-09T05:01:37;19.90;74.60
42965;DHT22;28604;51.204;22.552;2023-07-09T05:04:03;20.00;74.80
42965;DHT22;28604;51.204;22.552;2023-07-09T05:06:30;20.00;74.30
42965;DHT22;28604;51.204;22.552;2023-07-09T05:08:56;20.00;73.90
42965;DHT22;28604;51.204;22.552;2023-07-09T05:11:22;20.10;73.50
42965;DHT22;28604;51.204;22.552;2023-07-09T05:13:48;20.20;73.30
42965;DHT22;28604;51.204;22.552;2023-07-09T05:16:14;20.20;73.60
42965;DHT22;28604;51.204;22.552;2023-07-09T05:18:40;20.30;73.20
42965;DHT22;28604;51.204;22.552;2023-07-09T05:21:08;20.30;73.30
42965;DHT22;28604;51.204;22.552;2023-07-09T05:23:34;20.40;72.80
42965;DHT22;28604;51.204;22.552;2023-07-09T05:26:01;20.50;72.50
42965;DHT22;28604;51.204;22.552;2023-07-09T05:28:29;20.60;72.20
42965;DHT22;28604;51.204;22.552;2023-07-09T05:30:55;20.70;72.00
42965;DHT22;28604;51.204;22.552;2023-07-09T05:33:21;20.70;71.50
42965;DHT22;28604;51.204;22.552;2023-07-09T05:35:48;20.90;71.20
42965;DHT22;28604;51.204;22.552;2023-07-09T05:38:15;20.90;71.00
42965;DHT22;28604;51.204;22.552;2023-07-09T05:40:41;21.00;71.30
42965;DHT22;28604;51.204;22.552;2023-07-09T05:43:08;21.10;71.30
42965;DHT22;28604;51.204;22.552;2023-07-09T05:45:34;21.20;71.30
42965;DHT22;28604;51.204;22.552;2023-07-09T05:48:00;21.30;71.60
42965;DHT22;28604;51.204;22.552;2023-07-09T05:50:28;21.40;71.60
42965;DHT22;28604;51.204;22.552;2023-07-09T05:52:54;21.50;71.90
42965;DHT22;28604;51.204;22.552;2023-07-09T05:55:20;21.70;72.00
42965;DHT22;28604;51.204;22.552;2023-07-09T05:57:46;21.80;71.90
42965;DHT22;28604;51.204;22.552;2023-07-09T06:00:14;22.00;71.70
42965;DHT22;28604;51.204;22.552;2023-07-09T06:02:40;22.20;71.40
42965;DHT22;28604;51.204;22.552;2023-07-09T06:05:06;22.30;71.10
42965;DHT22;28604;51.204;22.552;2023-07-09T06:07:35;22.50;70.40
42965;DHT22;28604;51.204;22.552;2023-07-09T06:10:01;22.80;70.10
42965;DHT22;28604;51.204;22.552;2023-07-09T06:12:27;23.00;69.10
42965;DHT22;28604;51.204;22.552;2023-07-09T06:14:53;23.10;68.90
42965;DHT22;28604;51.204;22.552;2023-07-09T06:17:19;23.40;68.50
42965;DHT22;28604;51.204;22.552;2023-07-09T06:19:45;23.70;68.40
42965;DHT22;28604;51.204;22.552;2023-07-09T06:22:11;23.90;67.10
42965;DHT22;28604;51.204;22.552;2023-07-09T06:24:37;24.20;66.60
42965;DHT22;28604;51.204;22.552;2023-07-09T06:27:03;24.70;66.10
42965;DHT22;28604;51.204;22.552;2023-07-09T06:29:29;25.30;65.40
42965;DHT22;28604;51.204;22.552;2023-07-09T06:31:55;25.80;63.80
42965;DHT22;28604;51.204;22.552;2023-07-09T06:34:21;26.40;61.50
42965;DHT22;28604;51.204;22.552;2023-07-09T06:36:47;27.10;59.20
42965;DHT22;28604;51.204;22.552;2023-07-09T06:39:13;27.80;58.30
42965;DHT22;28604;51.204;22.552;2023-07-09T06:41:39;28.40;57.40
42965;DHT22;28604;51.204;22.552;2023-07-09T06:44:09;29.00;55.40
42965;DHT22;28604;51.204;22.552;2023-07-09T06:46:52;29.50;53.50
42965;DHT22;28604;51.204;22.552;2023-07-09T06:49:18;30.10;52.50
42965;DHT22;28604;51.204;22.552;2023-07-09T06:51:44;30.70;51.50
42965;DHT22;28604;51.204;22.552;2023-07-09T06:54:12;31.20;49.90
42965;DHT22;28604;51.204;22.552;2023-07-09T06:56:38;31.60;50.70
42965;DHT22;28604;51.204;22.552;2023-07-09T06:59:04;31.90;49.70
42965;DHT22;28604;51.204;22.552;2023-07-09T07:01:29;32.20;48.40
42965;DHT22;28604;51.204;22.552;2023-07-09T07:03:55;32.40;48.10
42965;DHT22;28604;51.204;22.552;2023-07-09T07:06:21;32.80;48.50
42965;DHT22;28604;51.204;22.552;2023-07-09T07:08:47;33.00;47.80
42965;DHT22;28604;51.204;22.552;2023-07-09T07:11:13;33.40;47.10
42965;DHT22;28604;51.204;22.552;2023-07-09T07:13:40;33.70;46.70
42965;DHT22;28604;51.204;22.552;2023-07-09T07:16:09;34.00;45.80
42965;DHT22;28604;51.204;22.552;2023-07-09T07:18:35;34.20;45.30
42965;DHT22;28604;51.204;22.552;2023-07-09T07:21:01;34.40;44.90
42965;DHT22;28604;51.204;22.552;2023-07-09T07:23:28;34.80;44.40
42965;DHT22;28604;51.204;22.552;2023-07-09T07:25:54;34.90;44.70
42965;DHT22;28604;51.204;22.552;2023-07-09T07:28:21;35.00;43.80
42965;DHT22;28604;51.204;22.552;2023-07-09T07:30:46;35.30;43.20
42965;DHT22;28604;51.204;22.552;2023-07-09T07:33:14;35.50;43.10
42965;DHT22;28604;51.204;22.552;2023-07-09T07:35:41;35.70;42.70
42965;DHT22;28604;51.204;22.552;2023-07-09T07:38:07;35.90;43.30
42965;DHT22;28604;51.204;22.552;2023-07-09T07:40:33;36.20;42.60
42965;DHT22;28604;51.204;22.552;2023-07-09T07:42:59;36.50;42.30
42965;DHT22;28604;51.204;22.552;2023-07-09T07:45:25;36.80;42.10
42965;DHT22;28604;51.204;22.552;2023-07-09T07:47:51;37.00;42.70
42965;DHT22;28604;51.204;22.552;2023-07-09T07:50:18;37.40;42.70
42965;DHT22;28604;51.204;22.552;2023-07-09T07:52:44;37.70;41.40
42965;DHT22;28604;51.204;22.552;2023-07-09T07:55:10;38.10;41.00
42965;DHT22;28604;51.204;22.552;2023-07-09T07:57:36;38.50;40.90
42965;DHT22;28604;51.204;22.552;2023-07-09T08:00:02;38.70;40.70
42965;DHT22;28604;51.204;22.552;2023-07-09T08:02:38;38.90;39.90
42965;DHT22;28604;51.204;22.552;2023-07-09T08:05:04;39.10;40.00
42965;DHT22;28604;51.204;22.552;2023-07-09T08:07:31;39.20;39.90
42965;DHT22;28604;51.204;22.552;2023-07-09T08:09:57;39.40;39.90
42965;DHT22;28604;51.204;22.552;2023-07-09T08:12:23;39.60;39.60
42965;DHT22;28604;51.204;22.552;2023-07-09T08:14:49;39.90;39.50
42965;DHT22;28604;51.204;22.552;2023-07-09T08:17:15;40.00;38.80
42965;DHT22;28604;51.204;22.552;2023-07-09T08:19:45;40.00;38.40
42965;DHT22;28604;51.204;22.552;2023-07-09T08:22:12;40.10;38.50
42965;DHT22;28604;51.204;22.552;2023-07-09T08:24:37;40.10;38.70
42965;DHT22;28604;51.204;22.552;2023-07-09T08:27:06;40.20;38.40
42965;DHT22;28604;51.204;22.552;2023-07-09T08:29:32;40.30;38.40
42965;DHT22;28604;51.204;22.552;2023-07-09T08:31:58;40.50;38.50
42965;DHT22;28604;51.204;22.552;2023-07-09T08:34:24;40.70;38.70
42965;DHT22;28604;51.204;22.552;2023-07-09T08:36:50;40.70;38.30
42965;DHT22;28604;51.204;22.552;2023-07-09T08:39:15;40.90;38.30
42965;DHT22;28604;51.204;22.552;2023-07-09T08:41:50;41.10;38.10
42965;DHT22;28604;51.204;22.552;2023-07-09T08:47:12;41.60;37.90
42965;DHT22;28604;51.204;22.552;2023-07-09T08:49:59;41.70;37.70
42965;DHT22;28604;51.204;22.552;2023-07-09T08:52:35;41.90;37.80
42965;DHT22;28604;51.204;22.552;2023-07-09T08:55:23;42.00;37.80
42965;DHT22;28604;51.204;22.552;2023-07-09T09:00:33;42.00;37.00
42965;DHT22;28604;51.204;22.552;2023-07-09T09:05:41;42.30;37.10
42965;DHT22;28604;51.204;22.552;2023-07-09T09:08:30;42.30;36.90
42965;DHT22;28604;51.204;22.552;2023-07-09T09:13:49;42.50;37.20
42965;DHT22;28604;51.204;22.552;2023-07-09T09:16:36;42.50;37.30
42965;DHT22;28604;51.204;22.552;2023-07-09T09:19:26;42.60;37.50
42965;DHT22;28604;51.204;22.552;2023-07-09T09:21:58;42.70;37.10
42965;DHT22;28604;51.204;22.552;2023-07-09T09:27:46;42.90;37.10
42965;DHT22;28604;51.204;22.552;2023-07-09T09:30:18;43.10;37.40
42965;DHT22;28604;51.204;22.552;2023-07-09T09:32:51;42.80;37.30
42965;DHT22;28604;51.204;22.552;2023-07-09T09:35:19;42.90;37.30
42965;DHT22;28604;51.204;22.552;2023-07-09T09:37:54;43.10;36.80
42965;DHT22;28604;51.204;22.552;2023-07-09T09:40:22;43.10;36.50
42965;DHT22;28604;51.204;22.552;2023-07-09T09:42:50;42.90;36.50
42965;DHT22;28604;51.204;22.552;2023-07-09T09:45:18;43.00;36.90
42965;DHT22;28604;51.204;22.552;2023-07-09T09:47:46;42.80;36.10
42965;DHT22;28604;51.204;22.552;2023-07-09T09:50:17;42.60;36.40
42965;DHT22;28604;51.204;22.552;2023-07-09T09:52:44;42.50;36.70
42965;DHT22;28604;51.204;22.552;2023-07-09T09:55:17;42.40;36.90
42965;DHT22;28604;51.204;22.552;2023-07-09T09:57:51;42.20;36.50
42965;DHT22;28604;51.204;22.552;2023-07-09T10:00:21;42.20;36.70
42965;DHT22;28604;51.204;22.552;2023-07-09T10:02:48;42.10;36.80
42965;DHT22;28604;51.204;22.552;2023-07-09T10:05:16;42.20;36.10
42965;DHT22;28604;51.204;22.552;2023-07-09T10:10:58;42.60;36.00
42965;DHT22;28604;51.204;22.552;2023-07-09T10:13:32;42.70;36.20
42965;DHT22;28604;51.204;22.552;2023-07-09T10:16:18;42.60;35.90
42965;DHT22;28604;51.204;22.552;2023-07-09T10:22:07;42.10;35.90
42965;DHT22;28604;51.204;22.552;2023-07-09T10:25:48;42.00;36.00
42965;DHT22;28604;51.204;22.552;2023-07-09T10:33:11;41.70;36.40
42965;DHT22;28604;51.204;22.552;2023-07-09T10:38:45;42.30;36.10
42965;DHT22;28604;51.204;22.552;2023-07-09T10:41:13;42.40;35.70
42965;DHT22;28604;51.204;22.552;2023-07-09T10:44:01;42.50;35.50
42965;DHT22;28604;51.204;22.552;2023-07-09T10:46:32;42.70;35.40
42965;DHT22;28604;51.204;22.552;2023-07-09T10:49:03;42.80;35.70
42965;DHT22;28604;51.204;22.552;2023-07-09T10:51:38;42.60;35.90
42965;DHT22;28604;51.204;22.552;2023-07-09T10:54:28;42.40;36.30
42965;DHT22;28604;51.204;22.552;2023-07-09T10:57:03;42.20;35.80
42965;DHT22;28604;51.204;22.552;2023-07-09T10:59:36;42.30;35.90
42965;DHT22;28604;51.204;22.552;2023-07-09T11:02:25;42.20;35.60
42965;DHT22;28604;51.204;22.552;2023-07-09T11:05:04;42.10;35.70
42965;DHT22;28604;51.204;22.552;2023-07-09T11:10:19;41.30;35.80
42965;DHT22;28604;51.204;22.552;2023-07-09T11:12:59;41.00;35.70
42965;DHT22;28604;51.204;22.552;2023-07-09T11:15:38;40.70;35.50
42965;DHT22;28604;51.204;22.552;2023-07-09T11:18:10;40.60;36.30
42965;DHT22;28604;51.204;22.552;2023-07-09T11:20:41;40.30;35.60
42965;DHT22;28604;51.204;22.552;2023-07-09T11:23:20;40.20;35.40
42965;DHT22;28604;51.204;22.552;2023-07-09T11:25:49;40.00;35.40
42965;DHT22;28604;51.204;22.552;2023-07-09T11:28:15;40.00;36.30
42965;DHT22;28604;51.204;22.552;2023-07-09T11:30:53;40.00;36.40
42965;DHT22;28604;51.204;22.552;2023-07-09T11:33:26;40.00;36.60
42965;DHT22;28604;51.204;22.552;2023-07-09T11:36:07;40.00;37.10
42965;DHT22;28604;51.204;22.552;2023-07-09T11:38:44;39.70;37.20
42965;DHT22;28604;51.204;22.552;2023-07-09T11:43:50;39.00;37.50
42965;DHT22;28604;51.204;22.552;2023-07-09T11:46:26;38.50;38.00
42965;DHT22;28604;51.204;22.552;2023-07-09T11:48:54;38.40;37.70
42965;DHT22;28604;51.204;22.552;2023-07-09T11:51:38;38.20;37.50
42965;DHT22;28604;51.204;22.552;2023-07-09T11:54:07;38.00;37.80
42965;DHT22;28604;51.204;22.552;2023-07-09T11:56:36;37.80;37.80
42965;DHT22;28604;51.204;22.552;2023-07-09T11:59:02;37.70;37.80
42965;DHT22;28604;51.204;22.552;2023-07-09T12:01:41;37.70;37.60
42965;DHT22;28604;51.204;22.552;2023-07-09T12:04:13;37.70;37.90
42965;DHT22;28604;51.204;22.552;2023-07-09T12:06:40;37.80;37.70
42965;DHT22;28604;51.204;22.552;2023-07-09T12:09:13;37.80;36.70
42965;DHT22;28604;51.204;22.552;2023-07-09T12:11:47;37.70;37.00
42965;DHT22;28604;51.204;22.552;2023-07-09T12:14:17;37.60;37.40
42965;DHT22;28604;51.204;22.552;2023-07-09T12:16:46;37.70;37.60
42965;DHT22;28604;51.204;22.552;2023-07-09T12:19:15;37.70;37.80
42965;DHT22;28604;51.204;22.552;2023-07-09T12:21:44;37.40;38.00
42965;DHT22;28604;51.204;22.552;2023-07-09T12:24:25;37.40;37.70
42965;DHT22;28604;51.204;22.552;2023-07-09T12:26:53;37.20;37.60
42965;DHT22;28604;51.204;22.552;2023-07-09T12:29:19;37.10;37.90
42965;DHT22;28604;51.204;22.552;2023-07-09T12:31:46;36.80;38.50
42965;DHT22;28604;51.204;22.552;2023-07-09T12:34:13;36.70;38.40
42965;DHT22;28604;51.204;22.552;2023-07-09T12:36:43;36.70;38.70
42965;DHT22;28604;51.204;22.552;2023-07-09T12:39:10;36.70;38.50
42965;DHT22;28604;51.204;22.552;2023-07-09T12:41:41;36.70;38.50
42965;DHT22;28604;51.204;22.552;2023-07-09T12:44:17;36.70;38.80
42965;DHT22;28604;51.204;22.552;2023-07-09T12:46:44;36.60;38.50
42965;DHT22;28604;51.204;22.552;2023-07-09T12:49:25;36.60;38.50
42965;DHT22;28604;51.204;22.552;2023-07-09T12:51:57;36.50;38.40
42965;DHT22;28604;51.204;22.552;2023-07-09T12:54:24;36.60;38.50
42965;DHT22;28604;51.204;22.552;2023-07-09T12:56:54;36.50;38.00
42965;DHT22;28604;51.204;22.552;2023-07-09T12:59:35;36.60;38.20
42965;DHT22;28604;51.204;22.552;2023-07-09T13:02:18;36.50;37.50
42965;DHT22;28604;51.204;22.552;2023-07-09T13:04:44;36.50;37.70
42965;DHT22;28604;51.204;22.552;2023-07-09T13:07:27;36.50;37.80
42965;DHT22;28604;51.204;22.552;2023-07-09T13:09:55;36.60;38.20
42965;DHT22;28604;51.204;22.552;2023-07-09T13:12:30;36.50;38.00
42965;DHT22;28604;51.204;22.552;2023-07-09T13:14:56;36.40;37.80
42965;DHT22;28604;51.204;22.552;2023-07-09T13:17:23;36.20;37.30
42965;DHT22;28604;51.204;22.552;2023-07-09T13:19:48;36.30;37.30
42965;DHT22;28604;51.204;22.552;2023-07-09T13:22:18;36.10;37.30
42965;DHT22;28604;51.204;22.552;2023-07-09T13:24:45;36.10;37.20
42965;DHT22;28604;51.204;22.552;2023-07-09T13:27:12;36.00;37.50
42965;DHT22;28604;51.204;22.552;2023-07-09T13:29:39;35.90;37.50
42965;DHT22;28604;51.204;22.552;2023-07-09T13:32:14;35.70;37.40
42965;DHT22;28604;51.204;22.552;2023-07-09T13:34:40;35.70;37.70
42965;DHT22;28604;51.204;22.552;2023-07-09T13:37:15;35.80;37.80
42965;DHT22;28604;51.204;22.552;2023-07-09T13:39:41;35.70;38.20
42965;DHT22;28604;51.204;22.552;2023-07-09T13:42:13;35.70;37.90
42965;DHT22;28604;51.204;22.552;2023-07-09T13:44:41;35.60;37.80
42965;DHT22;28604;51.204;22.552;2023-07-09T13:47:13;35.60;38.10
42965;DHT22;28604;51.204;22.552;2023-07-09T13:49:43;35.50;37.70
42965;DHT22;28604;51.204;22.552;2023-07-09T13:52:20;35.50;38.00
42965;DHT22;28604;51.204;22.552;2023-07-09T13:54:47;35.60;37.30
42965;DHT22;28604;51.204;22.552;2023-07-09T13:57:19;35.50;37.50
42965;DHT22;28604;51.204;22.552;2023-07-09T13:59:47;35.50;37.60
42965;DHT22;28604;51.204;22.552;2023-07-09T14:02:29;35.50;37.90
42965;DHT22;28604;51.204;22.552;2023-07-09T14:05:03;35.40;37.40
42965;DHT22;28604;51.204;22.552;2023-07-09T14:07:34;35.30;37.60
42965;DHT22;28604;51.204;22.552;2023-07-09T14:10:03;35.30;37.60
42965;DHT22;28604;51.204;22.552;2023-07-09T14:12:30;35.20;37.60
42965;DHT22;28604;51.204;22.552;2023-07-09T14:15:00;35.10;38.20
42965;DHT22;28604;51.204;22.552;2023-07-09T14:17:27;35.00;38.10
42965;DHT22;28604;51.204;22.552;2023-07-09T14:19:53;35.00;38.30
42965;DHT22;28604;51.204;22.552;2023-07-09T14:22:25;34.90;37.90
42965;DHT22;28604;51.204;22.552;2023-07-09T14:24:53;34.60;37.90
42965;DHT22;28604;51.204;22.552;2023-07-09T14:27:19;34.60;38.00
42965;DHT22;28604;51.204;22.552;2023-07-09T14:29:45;34.60;37.90
42965;DHT22;28604;51.204;22.552;2023-07-09T14:32:38;34.50;38.20
42965;DHT22;28604;51.204;22.552;2023-07-09T14:35:17;34.60;39.20
42965;DHT22;28604;51.204;22.552;2023-07-09T14:37:45;34.70;38.60
42965;DHT22;28604;51.204;22.552;2023-07-09T14:40:11;34.60;38.40
42965;DHT22;28604;51.204;22.552;2023-07-09T14:42:38;34.50;38.40
42965;DHT22;28604;51.204;22.552;2023-07-09T14:45:06;34.50;38.50
42965;DHT22;28604;51.204;22.552;2023-07-09T14:47:40;34.50;38.50
42965;DHT22;28604;51.204;22.552;2023-07-09T14:50:07;34.30;38.40
42965;DHT22;28604;51.204;22.552;2023-07-09T14:52:33;34.20;38.40
42965;DHT22;28604;51.204;22.552;2023-07-09T14:54:59;34.00;38.60
42965;DHT22;28604;51.204;22.552;2023-07-09T14:57:26;33.90;38.60
42965;DHT22;28604;51.204;22.552;2023-07-09T14:59:53;33.80;38.70
42965;DHT22;28604;51.204;22.552;2023-07-09T15:04:48;33.90;39.20
42965;DHT22;28604;51.204;22.552;2023-07-09T15:07:14;33.80;38.80
42965;DHT22;28604;51.204;22.552;2023-07-09T15:09:40;33.60;39.10
42965;DHT22;28604;51.204;22.552;2023-07-09T15:12:18;33.50;39.10
42965;DHT22;28604;51.204;22.552;2023-07-09T15:14:44;33.40;39.00
42965;DHT22;28604;51.204;22.552;2023-07-09T15:17:11;33.40;39.30
42965;DHT22;28604;51.204;22.552;2023-07-09T15:19:38;33.40;39.50
42965;DHT22;28604;51.204;22.552;2023-07-09T15:22:04;33.40;39.60
42965;DHT22;28604;51.204;22.552;2023-07-09T15:24:33;33.30;39.60
42965;DHT22;28604;51.204;22.552;2023-07-09T15:27:00;33.20;39.80
42965;DHT22;28604;51.204;22.552;2023-07-09T15:29:28;33.20;39.20
42965;DHT22;28604;51.204;22.552;2023-07-09T15:31:54;33.10;38.90
42965;DHT22;28604;51.204;22.552;2023-07-09T15:34:20;33.00;38.60
42965;DHT22;28604;51.204;22.552;2023-07-09T15:36:49;32.90;38.70
42965;DHT22;28604;51.204;22.552;2023-07-09T15:39:16;32.90;38.70
42965;DHT22;28604;51.204;22.552;2023-07-09T15:41:42;32.80;38.60
42965;DHT22;28604;51.204;22.552;2023-07-09T15:44:12;32.80;38.80
42965;DHT22;28604;51.204;22.552;2023-07-09T15:46:40;32.60;39.00
42965;DHT22;28604;51.204;22.552;2023-07-09T15:49:11;32.60;39.10
42965;DHT22;28604;51.204;22.552;2023-07-09T15:51:38;32.60;39.30
42965;DHT22;28604;51.204;22.552;2023-07-09T15:54:18;32.40;39.60
42965;DHT22;28604;51.204;22.552;2023-07-09T15:56:45;32.30;39.70
42965;DHT22;28604;51.204;22.552;2023-07-09T15:59:32;32.20;39.70
42965;DHT22;28604;51.204;22.552;2023-07-09T16:02:01;32.00;39.80
42965;DHT22;28604;51.204;22.552;2023-07-09T16:04:28;32.00;39.90